Time;durP1;ratioP1;P1;durP2;ratioP2;P2;SDS_P1;SDS_P2;PMS_P1;PMS_P2;Temp;Humidity;BMP_temperature;BMP_pressure;BME280_temperature;BME280_humidity;BME280_pressure;Samples;Min_cycle;Max_cycle;Signal;HPM_P1;HPM_P2
2023/01/26 00:02:08;;;;;;;34.63;16.63;;;-1.10;99.90;;;;;;5014408;28;20041;-76
2023/01/26 00:04:34;;;;;;;39.63;16.77;;;-1.00;99.90;;;;;;5014657;28;20359;-75
2023/01/26 00:07:00;;;;;;;44.97;19.58;;;-0.80;99.90;;;;;;4996785;28;20050;-75
2023/01/26 00:09:25;;;;;;;43.47;17.05;;;-0.90;99.90;;;;;;5014709;28;20050;-75
2023/01/26 00:11:51;;;;;;;42.95;18.33;;;-1.00;99.90;;;;;;5013569;28;20481;-75
2023/01/26 00:14:16;;;;;;;41.30;16.85;;;-0.60;99.90;;;;;;5013354;28;20348;-75
2023/01/26 00:16:42;;;;;;;48.10;19.08;;;-1.00;99.90;;;;;;5013643;28;20048;-75
2023/01/26 00:19:08;;;;;;;46.58;20.25;;;-1.00;99.90;;;;;;5013406;28;20041;-75
2023/01/26 00:21:34;;;;;;;56.28;21.83;;;-1.00;99.90;;;;;;5014882;28;20188;-75
2023/01/26 00:23:59;;;;;;;43.30;17.90;;;-1.00;99.90;;;;;;5013436;28;20287;-75
2023/01/26 00:26:26;;;;;;;46.85;19.75;;;-1.00;99.90;;;;;;5014742;28;20117;-75
2023/01/26 00:28:53;;;;;;;50.58;18.15;;;-1.10;99.90;;;;;;5013316;28;20041;-76
2023/01/26 00:31:22;;;;;;;44.92;17.65;;;-0.30;99.90;;;;;;5013543;28;20129;-75
2023/01/26 00:33:48;;;;;;;42.97;16.73;;;-0.70;99.90;;;;;;5012998;28;20088;-75
2023/01/26 00:36:14;;;;;;;44.42;17.20;;;-0.70;99.90;;;;;;4997169;28;20077;-75
2023/01/26 00:38:40;;;;;;;42.10;18.52;;;-0.70;99.90;;;;;;5012664;28;20529;-75
2023/01/26 00:41:06;;;;;;;52.38;20.40;;;-0.80;99.90;;;;;;5012873;28;20459;-75
2023/01/26 00:43:32;;;;;;;42.03;18.45;;;-1.00;99.90;;;;;;5013922;28;20065;-75
2023/01/26 00:45:58;;;;;;;48.75;18.73;;;-0.60;99.90;;;;;;5013847;28;20358;-75
2023/01/26 00:48:24;;;;;;;51.50;19.80;;;-1.10;99.90;;;;;;5013024;28;20129;-75
2023/01/26 00:50:50;;;;;;;51.28;20.83;;;-1.10;99.90;;;;;;5012952;28;20479;-75
2023/01/26 00:53:16;;;;;;;50.38;20.20;;;-0.10;99.90;;;;;;5013287;28;20048;-75
2023/01/26 00:55:42;;;;;;;47.17;17.77;;;-1.00;99.90;;;;;;5012803;28;20117;-75
2023/01/26 00:58:08;;;;;;;51.55;20.10;;;-0.20;99.90;;;;;;5012688;28;20088;-75
2023/01/26 01:00:36;;;;;;;42.78;17.27;;;-0.30;99.90;;;;;;5012520;28;20127;-75
2023/01/26 01:03:02;;;;;;;41.03;16.65;;;-1.00;99.90;;;;;;5013768;28;20370;-75
2023/01/26 01:05:30;;;;;;;47.75;16.75;;;-0.80;99.90;;;;;;4996211;28;20053;-75
2023/01/26 01:07:56;;;;;;;51.53;20.88;;;-1.00;99.90;;;;;;5029355;28;20143;-75
2023/01/26 01:10:22;;;;;;;47.17;19.13;;;-0.70;99.90;;;;;;5012969;28;20478;-75
2023/01/26 01:12:48;;;;;;;46.83;19.27;;;-1.00;99.90;;;;;;5012884;28;20046;-75
2023/01/26 01:15:14;;;;;;;43.28;18.45;;;-0.90;99.90;;;;;;5012514;28;20048;-75
2023/01/26 01:17:40;;;;;;;42.90;17.35;;;-0.90;99.90;;;;;;5012680;28;20046;-75
2023/01/26 01:20:08;;;;;;;46.67;19.02;;;-0.90;99.90;;;;;;5013378;28;20115;-75
2023/01/26 01:22:35;;;;;;;53.67;21.25;;;-0.90;99.90;;;;;;5012373;28;20040;-75
2023/01/26 01:25:01;;;;;;;48.25;18.48;;;-0.90;99.90;;;;;;5012568;28;20042;-75
2023/01/26 01:27:27;;;;;;;52.30;20.65;;;-0.90;99.90;;;;;;5014301;28;20128;-75
2023/01/26 01:29:53;;;;;;;40.60;16.15;;;-0.90;99.90;;;;;;5013297;28;20437;-76
2023/01/26 01:32:19;;;;;;;46.13;17.23;;;-0.10;99.90;;;;;;4996266;28;20104;-75
2023/01/26 01:34:48;;;;;;;40.97;16.20;;;-0.90;99.90;;;;;;5012529;28;20049;-75
2023/01/26 01:37:15;;;;;;;41.00;15.68;;;-0.90;99.90;;;;;;5013487;28;20042;-74
2023/01/26 01:39:41;;;;;;;37.10;16.23;;;-0.90;99.90;;;;;;5012479;28;20045;-75
2023/01/26 01:42:07;;;;;;;46.10;17.40;;;-0.90;99.90;;;;;;5013368;28;20370;-75
2023/01/26 01:44:37;;;;;;;48.88;17.73;;;-0.90;99.90;;;;;;5013408;28;20116;-75
2023/01/26 01:47:10;;;;;;;42.70;17.88;;;-0.90;99.90;;;;;;5013444;28;20042;-75
2023/01/26 01:49:49;;;;;;;42.03;16.20;;;-0.90;99.90;;;;;;5013862;28;20405;-75
2023/01/26 01:52:25;;;;;;;51.25;18.35;;;-0.90;99.90;;;;;;5017370;28;20104;-75
2023/01/26 01:55:00;;;;;;;40.67;16.13;;;-0.80;99.90;;;;;;5016195;28;20092;-75
2023/01/26 01:57:30;;;;;;;44.55;17.05;;;-0.90;99.90;;;;;;5017525;28;20300;-74
2023/01/26 02:00:05;;;;;;;43.38;17.58;;;-0.90;99.90;;;;;;5016089;28;20116;-75
2023/01/26 02:02:31;;;;;;;37.92;15.13;;;-0.90;99.90;;;;;;5015928;28;20042;-75
2023/01/26 02:05:02;;;;;;;37.95;14.82;;;-0.90;99.90;;;;;;5016690;28;20046;-75
2023/01/26 02:07:30;;;;;;;34.75;15.48;;;-0.90;99.90;;;;;;5016923;28;20042;-75
2023/01/26 02:12:42;;;;;;;42.00;16.75;;;-0.90;99.90;;;;;;5016609;28;20139;-75
2023/01/26 02:15:07;;;;;;;41.92;15.95;;;-0.90;99.90;;;;;;5015812;28;20085;-75
2023/01/26 02:17:33;;;;;;;45.22;17.70;;;-0.90;99.90;;;;;;5015768;28;20085;-74
2023/01/26 02:20:06;;;;;;;41.65;15.05;;;-0.80;99.90;;;;;;5015740;28;20137;-74
2023/01/26 02:23:09;;;;;;;48.50;19.60;;;-0.90;99.90;;;;;;5017147;28;20065;-74
2023/01/26 02:25:53;;;;;;;43.05;16.25;;;-0.80;99.90;;;;;;5013565;28;20127;-75
2023/01/26 02:28:23;;;;;;;40.22;15.15;;;-0.80;99.90;;;;;;5017044;28;20042;-74
2023/01/26 02:30:49;;;;;;;34.38;14.40;;;-0.80;99.90;;;;;;5015836;28;20120;-74
2023/01/26 02:33:30;;;;;;;40.85;15.90;;;-0.40;99.90;;;;;;5016558;28;20057;-74
2023/01/26 02:35:55;;;;;;;41.45;16.35;;;0.00;99.90;;;;;;5015398;28;20402;-74
2023/01/26 02:38:25;;;;;;;37.67;15.75;;;-0.80;99.90;;;;;;4999207;28;20185;-74
2023/01/26 02:41:07;;;;;;;38.95;14.52;;;-0.70;99.90;;;;;;5015485;28;20049;-74
2023/01/26 02:43:34;;;;;;;33.40;13.68;;;-0.80;99.90;;;;;;5016324;28;20046;-74
2023/01/26 02:45:59;;;;;;;38.33;15.27;;;-0.60;99.90;;;;;;5016253;28;20053;-74
2023/01/26 02:51:11;;;;;;;29.37;13.03;;;-0.70;99.90;;;;;;4984925;28;20485;-74
2023/01/26 02:53:37;;;;;;;29.13;12.40;;;-0.70;99.90;;;;;;5016125;28;20048;-74
2023/01/26 02:56:02;;;;;;;34.88;13.93;;;-0.70;99.90;;;;;;5014861;28;20044;-75
2023/01/26 02:58:28;;;;;;;30.15;13.02;;;-0.70;99.90;;;;;;5014822;28;20042;-74
2023/01/26 03:00:54;;;;;;;28.45;13.00;;;-0.70;99.90;;;;;;5015258;28;20041;-74
2023/01/26 03:03:40;;;;;;;33.92;13.57;;;-0.70;99.90;;;;;;5015245;28;20140;-74
2023/01/26 03:06:07;;;;;;;25.98;10.77;;;0.10;99.90;;;;;;5016102;28;20107;-74
2023/01/26 03:08:33;;;;;;;29.52;12.48;;;-0.70;99.90;;;;;;5015406;28;20378;-75
2023/01/26 03:10:59;;;;;;;28.67;11.60;;;-0.50;99.90;;;;;;5014866;28;20045;-74
2023/01/26 03:13:25;;;;;;;23.92;10.48;;;-0.30;99.90;;;;;;4998533;28;20116;-74
2023/01/26 03:15:53;;;;;;;24.52;9.88;;;-0.70;99.90;;;;;;5015103;28;20041;-74
2023/01/26 03:29:25;;;;;;;20.27;10.00;;;-0.30;99.90;;;;;;5016222;28;20097;-75
2023/01/26 03:31:51;;;;;;;24.60;10.68;;;-0.60;99.90;;;;;;5015998;28;20053;-74
2023/01/26 03:34:17;;;;;;;24.13;9.80;;;0.10;99.90;;;;;;5014253;28;20045;-74
2023/01/26 03:36:43;;;;;;;23.65;9.50;;;-0.60;99.90;;;;;;5016092;28;20450;-74
2023/01/26 03:39:08;;;;;;;19.73;8.85;;;-0.40;99.90;;;;;;5015301;28;20128;-74
2023/01/26 03:58:00;;;;;;;19.70;8.07;;;-0.40;99.90;;;;;;5013933;28;20057;-74
2023/01/26 04:00:26;;;;;;;18.10;6.72;;;0.20;99.90;;;;;;5015231;28;20133;-75
2023/01/26 04:08:23;;;;;;;15.93;7.50;;;-0.40;99.90;;;;;;5014011;28;20553;-75
2023/01/26 04:10:55;;;;;;;16.58;6.70;;;0.20;99.90;;;;;;5014316;28;20474;-75
2023/01/26 04:21:37;;;;;;;15.48;7.15;;;-0.40;99.90;;;;;;5014091;28;20413;-75
2023/01/26 04:24:12;;;;;;;14.20;6.55;;;-0.40;99.90;;;;;;5014180;28;20042;-76
2023/01/26 04:26:39;;;;;;;16.30;6.65;;;-0.30;99.90;;;;;;5013045;28;20048;-76
2023/01/26 04:29:07;;;;;;;13.82;7.40;;;0.50;99.90;;;;;;5013268;28;20042;-75
2023/01/26 04:31:33;;;;;;;14.68;7.15;;;0.10;99.90;;;;;;5013871;28;20100;-75
2023/01/26 04:34:00;;;;;;;14.77;7.18;;;-0.30;99.90;;;;;;5013179;28;20132;-75
2023/01/26 04:36:26;;;;;;;14.90;6.30;;;0.40;99.90;;;;;;5013173;28;20042;-75
2023/01/26 04:38:52;;;;;;;13.02;5.88;;;0.00;99.90;;;;;;5013850;28;20104;-75
2023/01/26 04:41:17;;;;;;;15.45;6.90;;;0.20;99.90;;;;;;5013139;28;20048;-74
2023/01/26 04:43:43;;;;;;;12.32;5.65;;;0.30;99.90;;;;;;5014201;28;20042;-75
2023/01/26 04:46:09;;;;;;;13.00;6.63;;;-0.30;99.90;;;;;;5014192;28;20088;-75
2023/01/26 04:48:36;;;;;;;13.35;6.03;;;0.20;99.90;;;;;;5013115;28;20042;-75
2023/01/26 04:51:08;;;;;;;13.98;5.90;;;-0.30;99.90;;;;;;5014117;28;20047;-75
2023/01/26 04:53:34;;;;;;;12.85;5.10;;;-0.30;99.90;;;;;;5014329;28;20474;-75
2023/01/26 04:56:00;;;;;;;10.95;5.53;;;-0.30;99.90;;;;;;5013269;28;20088;-75
2023/01/26 04:58:25;;;;;;;13.95;6.20;;;0.20;99.90;;;;;;5013949;28;20529;-75
2023/01/26 05:00:56;;;;;;;16.60;6.78;;;-0.30;99.90;;;;;;5012757;28;20092;-75
2023/01/26 05:03:22;;;;;;;12.30;5.47;;;-0.20;99.90;;;;;;5014457;28;20050;-74
2023/01/26 05:05:49;;;;;;;13.35;5.90;;;-0.20;99.90;;;;;;5014039;28;20100;-75
2023/01/26 05:08:16;;;;;;;12.90;6.68;;;-0.20;99.90;;;;;;5012837;28;20045;-75
2023/01/26 05:10:42;;;;;;;14.50;6.30;;;-0.20;99.90;;;;;;5012993;28;20041;-75
2023/01/26 05:13:08;;;;;;;15.95;6.75;;;-0.10;99.90;;;;;;4996395;28;20042;-75
2023/01/26 05:15:34;;;;;;;14.18;5.70;;;-0.20;99.90;;;;;;5012314;28;20053;-75
2023/01/26 05:18:00;;;;;;;12.35;6.18;;;-0.20;99.90;;;;;;5012658;28;20041;-75
2023/01/26 05:20:26;;;;;;;13.60;5.63;;;-0.20;99.90;;;;;;5012777;28;20038;-75
2023/01/26 05:22:52;;;;;;;14.35;6.45;;;-0.20;99.90;;;;;;5012333;28;20055;-75
2023/01/26 05:25:18;;;;;;;12.88;6.18;;;0.60;99.90;;;;;;4995871;28;20042;-75
2023/01/26 05:27:44;;;;;;;13.13;5.80;;;-0.20;99.90;;;;;;5012556;28;20050;-75
2023/01/26 05:30:10;;;;;;;15.57;6.38;;;-0.20;99.90;;;;;;4996140;28;20363;-75
2023/01/26 05:32:36;;;;;;;17.60;6.35;;;-0.20;99.90;;;;;;5013410;28;20044;-75
2023/01/26 05:35:03;;;;;;;14.60;6.20;;;-0.10;99.90;;;;;;5013342;28;20466;-75
2023/01/26 05:37:29;;;;;;;16.58;6.45;;;-0.10;99.90;;;;;;5012957;28;20394;-75
2023/01/26 05:39:55;;;;;;;15.70;6.68;;;0.10;99.90;;;;;;5012739;28;20116;-75
2023/01/26 05:42:22;;;;;;;14.57;6.72;;;0.10;99.90;;;;;;5012436;28;20049;-76
2023/01/26 05:44:48;;;;;;;14.88;5.53;;;-0.10;99.90;;;;;;5012645;28;20125;-76
2023/01/26 05:47:14;;;;;;;14.55;5.88;;;-0.10;99.90;;;;;;5012352;28;20132;-75
2023/01/26 05:49:41;;;;;;;16.73;5.78;;;-0.10;99.90;;;;;;5013308;28;20049;-75
2023/01/26 05:52:13;;;;;;;16.45;7.50;;;-0.10;99.90;;;;;;4996157;28;20049;-75
2023/01/26 05:54:39;;;;;;;12.65;6.35;;;0.30;99.90;;;;;;5013233;28;20516;-75
2023/01/26 05:57:04;;;;;;;16.50;6.30;;;-0.10;99.90;;;;;;5013008;28;20042;-75
2023/01/26 05:59:30;;;;;;;13.73;6.03;;;0.00;99.90;;;;;;5012344;28;20057;-75
2023/01/26 06:01:56;;;;;;;14.95;6.80;;;-0.10;99.90;;;;;;5013215;28;20128;-75
2023/01/26 06:04:22;;;;;;;13.95;6.65;;;0.50;99.90;;;;;;5012154;28;20068;-75
2023/01/26 06:06:50;;;;;;;15.93;5.55;;;0.00;99.90;;;;;;5013149;28;20046;-75
2023/01/26 06:09:16;;;;;;;14.27;5.72;;;0.00;99.90;;;;;;5011929;28;20049;-75
2023/01/26 06:11:42;;;;;;;13.90;5.75;;;0.00;99.90;;;;;;5013563;28;20042;-74
2023/01/26 06:14:07;;;;;;;14.85;5.93;;;0.00;99.90;;;;;;5012100;28;20057;-75
2023/01/26 06:16:33;;;;;;;12.88;6.80;;;0.30;99.90;;;;;;5012106;28;20146;-75
2023/01/26 06:18:59;;;;;;;13.18;7.05;;;0.00;99.90;;;;;;5012239;28;20041;-75
2023/01/26 06:21:24;;;;;;;18.92;7.05;;;0.00;99.90;;;;;;5012105;28;20042;-75
2023/01/26 06:23:50;;;;;;;14.50;5.90;;;0.30;99.90;;;;;;5011752;28;20085;-75
2023/01/26 06:26:15;;;;;;;12.13;5.60;;;0.00;99.90;;;;;;5012109;28;20046;-75
2023/01/26 06:28:41;;;;;;;12.88;6.18;;;0.00;99.90;;;;;;5011962;28;20038;-75
2023/01/26 06:31:09;;;;;;;14.68;5.80;;;0.80;99.90;;;;;;5012793;28;20116;-75
2023/01/26 06:33:36;;;;;;;11.55;6.28;;;0.00;99.90;;;;;;4979911;28;20107;-75
2023/01/26 06:36:08;;;;;;;16.00;6.85;;;0.00;99.90;;;;;;4995790;28;20413;-75
2023/01/26 06:38:35;;;;;;;18.35;6.85;;;0.00;99.90;;;;;;4999044;28;20046;-75
2023/01/26 06:41:02;;;;;;;17.60;6.97;;;0.00;99.90;;;;;;5015500;28;20444;-75
2023/01/26 06:43:35;;;;;;;18.70;6.65;;;0.60;99.90;;;;;;4998995;28;20049;-75
2023/01/26 06:46:02;;;;;;;19.65;7.55;;;0.00;99.90;;;;;;5015345;28;20050;-75
2023/01/26 06:48:30;;;;;;;18.83;7.78;;;0.10;99.90;;;;;;5015333;28;20116;-75
2023/01/26 06:51:23;;;;;;;15.43;6.78;;;0.10;99.90;;;;;;4998910;28;20046;-75
2023/01/26 06:53:53;;;;;;;16.50;6.47;;;0.10;99.90;;;;;;4985043;28;20397;-75
2023/01/26 06:56:19;;;;;;;18.65;7.35;;;0.10;99.90;;;;;;5015162;28;20053;-75
2023/01/26 06:58:45;;;;;;;21.30;8.00;;;0.10;99.90;;;;;;5015425;28;20475;-75
2023/01/26 07:01:22;;;;;;;22.40;7.40;;;0.10;99.90;;;;;;5016195;28;20041;-75
2023/01/26 07:03:48;;;;;;;26.38;7.93;;;0.10;99.90;;;;;;5015061;28;20041;-75
2023/01/26 07:06:14;;;;;;;20.42;8.45;;;1.30;99.90;;;;;;4998196;28;20133;-75
2023/01/26 07:08:40;;;;;;;20.85;7.38;;;0.10;99.90;;;;;;5014467;28;20145;-75
2023/01/26 07:11:07;;;;;;;24.73;8.07;;;0.10;99.90;;;;;;5014837;28;20048;-75
2023/01/26 07:13:33;;;;;;;26.45;8.25;;;0.10;99.90;;;;;;5014782;28;20209;-75
2023/01/26 07:16:04;;;;;;;27.55;7.93;;;0.20;99.90;;;;;;5014808;28;20063;-75
2023/01/26 07:18:31;;;;;;;32.17;9.13;;;0.20;99.90;;;;;;5014448;28;20075;-75
2023/01/26 07:21:05;;;;;;;23.40;8.77;;;0.20;99.90;;;;;;5015763;28;20493;-75
2023/01/26 07:23:31;;;;;;;30.35;8.25;;;0.20;99.90;;;;;;5014448;28;20085;-73
2023/01/26 07:25:58;;;;;;;26.80;7.95;;;0.30;99.90;;;;;;5014297;28;20443;-73
2023/01/26 07:28:24;;;;;;;32.63;9.20;;;0.20;99.90;;;;;;5014383;28;20112;-73
2023/01/26 07:30:51;;;;;;;27.98;9.00;;;0.20;99.90;;;;;;5015632;28;20401;-73
2023/01/26 07:33:17;;;;;;;29.17;8.65;;;0.20;99.90;;;;;;5015389;28;20046;-73
2023/01/26 07:35:43;;;;;;;30.02;9.75;;;0.20;99.90;;;;;;4997920;28;20037;-74
2023/01/26 07:38:08;;;;;;;28.48;9.38;;;0.30;99.90;;;;;;5014661;28;20049;-73
2023/01/26 07:40:34;;;;;;;32.20;10.48;;;0.70;99.90;;;;;;4997855;28;20046;-73
2023/01/26 07:43:00;;;;;;;36.83;9.50;;;0.30;99.90;;;;;;5013445;28;20095;-73
2023/01/26 07:45:26;;;;;;;31.85;10.48;;;0.30;99.90;;;;;;5013784;28;20044;-74
2023/01/26 07:47:56;;;;;;;27.05;8.88;;;0.40;99.90;;;;;;5015361;28;20413;-74
2023/01/26 07:50:24;;;;;;;28.85;8.93;;;0.30;99.90;;;;;;5015009;28;20042;-73
2023/01/26 07:52:51;;;;;;;38.15;9.77;;;0.50;99.90;;;;;;5015801;28;20405;-75
2023/01/26 07:55:19;;;;;;;35.13;11.25;;;0.30;99.90;;;;;;5014724;28;20049;-73
2023/01/26 07:57:48;;;;;;;40.42;10.70;;;0.40;99.90;;;;;;5014229;28;20046;-73
2023/01/26 08:00:15;;;;;;;41.05;11.25;;;0.40;99.90;;;;;;5014086;28;20038;-73
2023/01/26 08:02:40;;;;;;;53.83;12.38;;;0.40;99.90;;;;;;5013339;28;20042;-73
2023/01/26 08:05:06;;;;;;;35.97;9.88;;;0.40;99.90;;;;;;4997098;28;20117;-78
2023/01/26 08:07:32;;;;;;;41.70;11.63;;;0.40;99.90;;;;;;4997183;28;20104;-78
2023/01/26 08:09:58;;;;;;;52.53;12.60;;;0.40;99.90;;;;;;4981458;28;20109;-77
2023/01/26 08:12:24;;;;;;;39.92;10.43;;;0.40;99.90;;;;;;5014084;28;20080;-77
2023/01/26 08:14:50;;;;;;;32.17;10.20;;;0.40;99.90;;;;;;5014522;28;20128;-77
2023/01/26 08:17:16;;;;;;;23.80;9.13;;;0.40;99.90;;;;;;5013634;28;20435;-77
2023/01/26 08:19:43;;;;;;;25.48;9.00;;;0.50;99.90;;;;;;4997143;28;20053;-77
2023/01/26 08:22:08;;;;;;;26.35;8.73;;;0.50;99.90;;;;;;4996966;28;20378;-76
2023/01/26 08:24:34;;;;;;;27.20;9.68;;;0.60;99.90;;;;;;5013179;28;20053;-75
2023/01/26 08:27:00;;;;;;;26.10;9.20;;;0.60;99.90;;;;;;5013264;28;20097;-75
2023/01/26 08:29:25;;;;;;;26.27;8.90;;;0.60;99.90;;;;;;5013423;28;20048;-77
2023/01/26 08:31:52;;;;;;;21.27;7.88;;;0.80;99.90;;;;;;4981539;28;20068;-76
2023/01/26 08:34:18;;;;;;;30.02;8.85;;;0.70;99.90;;;;;;5013540;28;20081;-77
2023/01/26 08:36:43;;;;;;;19.50;8.88;;;0.70;99.90;;;;;;5013184;28;20097;-76
2023/01/26 08:39:12;;;;;;;24.30;8.35;;;1.30;99.90;;;;;;4982347;28;20045;-76
2023/01/26 08:41:38;;;;;;;23.45;8.45;;;0.70;99.90;;;;;;5013709;28;20037;-77
2023/01/26 08:44:05;;;;;;;22.25;8.48;;;0.70;99.90;;;;;;4980500;28;20498;-77
2023/01/26 08:46:31;;;;;;;23.17;8.55;;;0.70;99.90;;;;;;4981488;28;20037;-75
2023/01/26 08:48:57;;;;;;;25.05;7.43;;;1.00;99.90;;;;;;5013970;28;20060;-76
2023/01/26 08:51:23;;;;;;;24.77;8.65;;;0.80;99.90;;;;;;5013270;28;20385;-76
2023/01/26 08:53:48;;;;;;;23.73;7.45;;;0.90;99.90;;;;;;4996792;28;20042;-76
2023/01/26 08:56:14;;;;;;;21.30;7.63;;;1.40;99.90;;;;;;5012976;28;20129;-76
2023/01/26 08:58:40;;;;;;;25.92;7.38;;;1.40;99.90;;;;;;4996640;28;20041;-76
2023/01/26 09:01:14;;;;;;;21.02;7.57;;;1.20;99.90;;;;;;4996077;28;20041;-77
2023/01/26 09:03:40;;;;;;;20.83;6.57;;;1.30;99.90;;;;;;5012832;28;20129;-76
2023/01/26 09:06:08;;;;;;;23.33;7.03;;;1.20;99.90;;;;;;5012514;28;20060;-76
2023/01/26 09:08:34;;;;;;;24.50;7.00;;;1.30;99.90;;;;;;5012868;28;20054;-76
2023/01/26 09:11:00;;;;;;;23.48;7.15;;;1.30;99.90;;;;;;5014370;28;20100;-76
2023/01/26 09:13:26;;;;;;;22.30;7.32;;;1.30;99.90;;;;;;5013524;28;20088;-76
2023/01/26 09:15:52;;;;;;;20.65;6.82;;;1.50;99.90;;;;;;5013500;28;20113;-76
2023/01/26 09:18:18;;;;;;;23.52;7.22;;;1.40;99.90;;;;;;5013018;28;20378;-76
2023/01/26 09:20:44;;;;;;;23.80;7.32;;;1.40;99.90;;;;;;5014189;28;20048;-76
2023/01/26 09:23:11;;;;;;;22.75;6.43;;;1.40;99.90;;;;;;4996291;28;20041;-76
2023/01/26 09:25:38;;;;;;;21.85;7.20;;;1.40;99.90;;;;;;5012651;28;20135;-76
2023/01/26 09:28:05;;;;;;;19.25;6.65;;;1.40;99.90;;;;;;5012663;28;20053;-76
2023/01/26 09:30:31;;;;;;;20.20;7.13;;;1.80;99.90;;;;;;5012744;28;20050;-75
2023/01/26 09:33:02;;;;;;;21.88;6.20;;;1.50;99.90;;;;;;5012299;28;20132;-76
2023/01/26 09:35:28;;;;;;;20.02;6.53;;;1.70;99.90;;;;;;5012635;28;20041;-75
2023/01/26 09:37:54;;;;;;;20.42;6.55;;;1.80;99.90;;;;;;5012050;28;20038;-76
2023/01/26 09:40:39;;;;;;;24.17;6.97;;;2.00;99.90;;;;;;4996230;28;20053;-76
2023/01/26 09:43:33;;;;;;;24.95;6.55;;;2.30;99.90;;;;;;5012061;28;20049;-76
2023/01/26 09:46:24;;;;;;;21.30;5.97;;;2.60;99.90;;;;;;4996050;28;20485;-76
2023/01/26 09:49:07;;;;;;;21.70;6.20;;;2.80;99.90;;;;;;5009354;28;20058;-76
2023/01/26 09:51:48;;;;;;;17.75;5.47;;;3.00;99.90;;;;;;5013215;28;20056;-76
2023/01/26 09:54:37;;;;;;;14.35;5.05;;;3.10;99.90;;;;;;5012496;28;20034;-76
2023/01/26 09:57:31;;;;;;;22.70;4.85;;;3.30;99.90;;;;;;5012680;28;20050;-77
2023/01/26 10:00:20;;;;;;;23.92;5.07;;;3.80;99.90;;;;;;5012359;28;20493;-76
2023/01/26 10:03:19;;;;;;;17.02;5.18;;;3.60;99.90;;;;;;4996677;28;20046;-76
2023/01/26 10:05:57;;;;;;;19.27;4.90;;;3.80;99.90;;;;;;5012150;28;20049;-77
2023/01/26 10:08:23;;;;;;;17.20;6.28;;;4.00;99.90;;;;;;5012451;28;20045;-76
2023/01/26 10:11:00;;;;;;;15.85;4.82;;;4.30;99.90;;;;;;4996582;28;20049;-77
2023/01/26 10:13:28;;;;;;;14.50;4.07;;;4.30;99.90;;;;;;5016735;28;20425;-77
2023/01/26 10:16:00;;;;;;;16.60;4.10;;;4.50;99.90;;;;;;5015845;28;20124;-75
2023/01/26 10:18:33;;;;;;;13.38;3.88;;;4.70;99.90;;;;;;5016519;28;20184;-77
2023/01/26 10:21:02;;;;;;;13.32;5.00;;;4.90;99.90;;;;;;5016243;28;20128;-77
2023/01/26 10:23:33;;;;;;;13.98;3.35;;;5.20;99.90;;;;;;5015502;28;20073;-76
2023/01/26 10:26:15;;;;;;;10.43;3.45;;;5.50;99.90;;;;;;5015455;28;20049;-77
2023/01/26 10:28:42;;;;;;;11.15;3.10;;;5.80;99.90;;;;;;5015462;28;20085;-77
2023/01/26 10:31:16;;;;;;;10.95;2.75;;;6.10;99.90;;;;;;5015608;28;20077;-77
2023/01/26 10:33:50;;;;;;;17.50;2.95;;;6.60;99.90;;;;;;5016476;28;20336;-77
2023/01/26 10:36:16;;;;;;;11.48;3.35;;;7.00;99.90;;;;;;5016411;28;20039;-77
2023/01/26 10:38:43;;;;;;;12.50;3.28;;;7.40;99.90;;;;;;5016334;28;20520;-77
2023/01/26 10:41:17;;;;;;;13.57;3.47;;;8.00;99.90;;;;;;5015447;28;20046;-77
2023/01/26 10:43:53;;;;;;;9.88;2.83;;;8.40;99.90;;;;;;4999107;28;20393;-77
2023/01/26 10:46:33;;;;;;;10.90;2.97;;;8.80;99.90;;;;;;5015694;28;20054;-78
2023/01/26 10:49:06;;;;;;;12.48;2.90;;;9.20;99.90;;;;;;4999018;28;20049;-78
2023/01/26 10:51:34;;;;;;;11.95;2.67;;;9.60;99.90;;;;;;5015629;28;20042;-78
2023/01/26 10:54:26;;;;;;;11.68;2.60;;;9.90;99.90;;;;;;5015422;28;20053;-78
2023/01/26 10:56:55;;;;;;;10.13;2.30;;;10.20;99.90;;;;;;5012452;28;20046;-78
2023/01/26 10:59:57;;;;;;;13.05;2.75;;;10.30;99.90;;;;;;5015199;28;20115;-78
2023/01/26 11:02:26;;;;;;;11.00;2.55;;;10.50;99.90;;;;;;5004791;28;20046;-78
2023/01/26 11:05:07;;;;;;;8.00;2.22;;;10.60;99.90;;;;;;5014818;28;20042;-78
2023/01/26 11:07:38;;;;;;;9.50;2.70;;;10.70;99.90;;;;;;5014873;28;20095;-78
2023/01/26 11:10:16;;;;;;;9.15;2.50;;;10.90;99.90;;;;;;4999261;28;20046;-78
2023/01/26 11:12:42;;;;;;;9.27;2.63;;;11.00;99.90;;;;;;4998475;28;20080;-79
2023/01/26 11:15:21;;;;;;;12.20;2.72;;;11.30;99.90;;;;;;4998488;28;20041;-78
2023/01/26 11:18:11;;;;;;;10.38;2.63;;;11.40;99.90;;;;;;5014454;28;20042;-79
2023/01/26 11:20:58;;;;;;;14.70;2.80;;;11.60;99.90;;;;;;5014168;28;20054;-79
2023/01/26 11:23:36;;;;;;;9.95;2.47;;;11.60;99.90;;;;;;5013002;28;20101;-82
2023/01/26 11:26:24;;;;;;;10.80;2.10;;;11.60;99.90;;;;;;4997215;28;20045;-81
2023/01/26 11:29:08;;;;;;;10.13;2.53;;;11.70;99.90;;;;;;4997345;28;20058;-81
2023/01/26 11:31:56;;;;;;;12.85;2.20;;;11.70;99.90;;;;;;5013170;28;20478;-78
2023/01/26 11:34:49;;;;;;;8.35;1.80;;;11.40;99.90;;;;;;5013016;28;20491;-78
2023/01/26 11:37:52;;;;;;;10.23;1.95;;;11.10;99.90;;;;;;5013696;28;20042;-81
2023/01/26 11:40:17;;;;;;;7.53;1.90;;;10.40;99.90;;;;;;5013819;28;20533;-80
2023/01/26 11:42:46;;;;;;;9.77;2.92;;;9.80;99.90;;;;;;5013020;28;20038;-81
2023/01/26 11:45:35;;;;;;;8.77;2.38;;;9.40;99.90;;;;;;5013172;28;20422;-78
2023/01/26 11:48:17;;;;;;;6.65;2.20;;;9.00;99.90;;;;;;5012871;28;20141;-78
2023/01/26 11:50:45;;;;;;;7.70;1.75;;;8.80;99.90;;;;;;4996984;28;20053;-79
2023/01/26 11:53:14;;;;;;;8.32;2.00;;;8.70;99.90;;;;;;5013221;28;20049;-79
2023/01/26 11:56:10;;;;;;;8.23;1.60;;;8.60;99.90;;;;;;5012695;28;20474;-80
2023/01/26 11:58:46;;;;;;;8.88;2.05;;;8.50;99.90;;;;;;5013327;28;20177;-78
2023/01/26 12:01:30;;;;;;;10.57;2.30;;;8.60;99.90;;;;;;5012742;28;20056;-79
2023/01/26 12:03:56;;;;;;;9.93;2.28;;;8.50;99.90;;;;;;5013089;28;20054;-77
2023/01/26 12:06:41;;;;;;;10.57;2.28;;;8.50;99.90;;;;;;4995603;28;20085;-77
2023/01/26 12:09:31;;;;;;;8.68;1.90;;;8.30;99.90;;;;;;5013951;28;20054;-77
2023/01/26 12:11:57;;;;;;;6.93;1.88;;;8.20;99.90;;;;;;5012687;28;20114;-78
2023/01/26 12:14:40;;;;;;;8.98;2.00;;;8.00;99.90;;;;;;5012903;28;20133;-77
2023/01/26 12:17:05;;;;;;;13.38;2.38;;;7.90;99.90;;;;;;5012562;28;20037;-77
2023/01/26 12:19:37;;;;;;;7.43;1.60;;;7.80;99.90;;;;;;5012056;28;20073;-76
2023/01/26 12:22:18;;;;;;;8.95;1.90;;;7.80;99.90;;;;;;5012054;28;20041;-77
2023/01/26 12:24:59;;;;;;;9.82;2.10;;;7.90;99.90;;;;;;5012204;28;20046;-77
2023/01/26 12:27:39;;;;;;;8.30;2.00;;;7.90;99.90;;;;;;5012206;28;20053;-77
2023/01/26 12:30:26;;;;;;;4.57;1.58;;;7.80;99.90;;;;;;5012622;28;20139;-77
2023/01/26 12:32:52;;;;;;;8.45;1.98;;;7.80;99.90;;;;;;5011783;28;20084;-76
2023/01/26 12:35:49;;;;;;;7.10;1.88;;;7.80;99.90;;;;;;5011545;28;20038;-77
2023/01/26 12:38:25;;;;;;;6.43;1.70;;;7.70;99.90;;;;;;4995924;28;20061;-80
2023/01/26 12:41:23;;;;;;;6.10;1.83;;;7.70;99.90;;;;;;5012451;28;20049;-81
2023/01/26 12:44:07;;;;;;;7.53;1.95;;;7.60;99.90;;;;;;4984332;28;20057;-79
2023/01/26 12:46:39;;;;;;;9.10;1.77;;;7.60;99.90;;;;;;5012312;28;20453;-79
2023/01/26 12:49:28;;;;;;;5.63;1.40;;;7.50;99.90;;;;;;5011578;28;20045;-79
2023/01/26 12:52:05;;;;;;;5.13;1.60;;;7.50;99.90;;;;;;5011618;28;20072;-79
2023/01/26 12:54:41;;;;;;;10.82;2.30;;;7.50;99.90;;;;;;5012265;28;20046;-80
2023/01/26 12:57:13;;;;;;;10.98;1.90;;;7.60;99.90;;;;;;5011876;28;20483;-78
2023/01/26 12:59:40;;;;;;;9.60;2.88;;;7.60;99.90;;;;;;5009409;28;20058;-79
2023/01/26 13:02:13;;;;;;;5.78;1.70;;;7.50;99.90;;;;;;4978398;28;20053;-79
2023/01/26 13:04:43;;;;;;;8.90;1.77;;;7.50;99.90;;;;;;5011339;28;20042;-78
2023/01/26 13:07:27;;;;;;;6.30;1.60;;;7.40;99.90;;;;;;5011894;28;20529;-79
2023/01/26 13:10:27;;;;;;;7.78;1.60;;;7.40;99.90;;;;;;5012162;28;20050;-77
2023/01/26 13:13:20;;;;;;;6.22;1.67;;;7.30;99.90;;;;;;4979267;28;20506;-81
2023/01/26 13:15:46;;;;;;;6.45;1.73;;;7.20;99.90;;;;;;4994915;28;20375;-78
2023/01/26 13:18:16;;;;;;;5.35;2.03;;;7.10;99.90;;;;;;4995250;28;20094;-78
2023/01/26 13:20:49;;;;;;;5.80;1.60;;;7.30;99.90;;;;;;4979264;28;20129;-78
2023/01/26 13:23:27;;;;;;;4.35;1.40;;;7.60;99.90;;;;;;5011356;28;20495;-79
2023/01/26 13:26:15;;;;;;;6.25;1.75;;;7.90;99.90;;;;;;5011422;28;20042;-81
2023/01/26 13:28:41;;;;;;;6.00;1.80;;;8.20;99.90;;;;;;4994689;28;20061;-79
2023/01/26 13:31:09;;;;;;;10.82;2.17;;;8.70;99.90;;;;;;5011265;28;20042;-79
2023/01/26 13:33:35;;;;;;;7.93;1.50;;;8.80;99.90;;;;;;5008665;28;20049;-82
2023/01/26 13:36:16;;;;;;;9.43;1.95;;;8.60;99.90;;;;;;5009985;28;20050;-79
2023/01/26 13:38:46;;;;;;;7.78;3.15;;;8.50;99.90;;;;;;5011322;28;20038;-80
2023/01/26 13:41:20;;;;;;;16.05;7.75;;;8.40;99.90;;;;;;4995483;28;20370;-80
2023/01/26 13:43:52;;;;;;;10.38;2.40;;;8.50;99.90;;;;;;4995494;28;20062;-78
2023/01/26 13:46:33;;;;;;;4.30;1.65;;;8.50;99.90;;;;;;5014234;28;20056;-77